createdAt,value
2018-12-22T00:02:15.808Z,94126.38
2018-12-22T00:04:44.335Z,94129.20
2018-12-22T00:07:12.322Z,94129.05
2018-12-22T00:09:40.345Z,94140.04
2018-12-22T00:12:08.354Z,94138.66
2018-12-22T00:14:36.323Z,94147.52
2018-12-22T00:17:04.368Z,94158.53
2018-12-22T00:19:32.445Z,94168.96
2018-12-22T00:22:00.424Z,94175.77
2018-12-22T00:24:28.377Z,94172.47
2018-12-22T00:26:56.279Z,94178.84
2018-12-22T00:29:24.295Z,94175.02
2018-12-22T00:31:52.375Z,94179.63
2018-12-22T00:34:20.355Z,94183.39
2018-12-22T00:36:48.498Z,94184.66
2018-12-22T00:39:16.551Z,94192.66
2018-12-22T00:41:44.528Z,94189.59
2018-12-22T00:44:12.564Z,94181.22
2018-12-22T00:46:40.572Z,94182.28
2018-12-22T00:49:08.511Z,94177.75
2018-12-22T00:51:36.481Z,94173.11
2018-12-22T00:54:04.470Z,94165.41
2018-12-22T00:56:32.462Z,94158.20
2018-12-22T00:59:00.587Z,94158.18
2018-12-22T01:01:28.547Z,94146.40
2018-12-22T01:03:56.469Z,94153.57
2018-12-22T01:06:24.365Z,94153.91
2018-12-22T01:08:52.348Z,94152.84
2018-12-22T01:11:20.443Z,94145.16
2018-12-22T01:13:48.414Z,94151.78
2018-12-22T01:16:16.334Z,94163.11
2018-12-22T01:18:44.322Z,94163.97
2018-12-22T01:21:12.345Z,94157.58
2018-12-22T01:23:40.328Z,94154.16
2018-12-22T01:26:08.277Z,94152.77
2018-12-22T01:28:39.570Z,94145.98
2018-12-22T01:31:06.426Z,94154.41
2018-12-22T01:33:34.398Z,94150.93
2018-12-22T01:36:02.467Z,94140.37
2018-12-22T01:38:30.499Z,94133.27
2018-12-22T01:40:58.450Z,94136.27
2018-12-22T01:43:26.369Z,94132.27
2018-12-22T01:45:54.352Z,94127.59
2018-12-22T01:48:22.330Z,94133.41
2018-12-22T01:50:50.302Z,94134.94
2018-12-22T01:53:18.273Z,94126.89
2018-12-22T01:55:46.804Z,94123.19
2018-12-22T01:58:14.752Z,94116.59
2018-12-22T02:00:42.747Z,94113.80
2018-12-22T02:03:10.703Z,94117.67
2018-12-22T02:05:38.625Z,94120.34
2018-12-22T02:08:06.824Z,94121.20
2018-12-22T02:10:34.782Z,94128.72
2018-12-22T02:13:02.771Z,94115.66
2018-12-22T02:15:30.707Z,94112.48
2018-12-22T02:17:58.672Z,94103.92
2018-12-22T02:20:26.647Z,94096.42
2018-12-22T02:22:54.599Z,94100.80
2018-12-22T02:25:22.588Z,94115.75
2018-12-22T02:27:50.677Z,94111.41
2018-12-22T02:30:18.651Z,94111.44
2018-12-22T02:32:46.591Z,94104.56
2018-12-22T02:35:14.569Z,94098.56
2018-12-22T02:37:42.505Z,94101.76
2018-12-22T02:40:10.477Z,94104.20
2018-12-22T02:42:38.457Z,94105.12
2018-12-22T02:45:06.719Z,94099.46
2018-12-22T02:47:34.682Z,94101.03
2018-12-22T02:50:02.626Z,94098.95
2018-12-22T02:52:30.596Z,94092.73
2018-12-22T02:54:58.536Z,94093.59
2018-12-22T02:57:26.491Z,94091.70
2018-12-22T02:59:54.496Z,94084.77
2018-12-22T03:02:22.513Z,94081.42
2018-12-22T03:04:50.441Z,94072.56
2018-12-22T03:07:18.415Z,94065.25
2018-12-22T03:09:46.358Z,94079.48
2018-12-22T03:12:14.333Z,94090.95
2018-12-22T03:14:42.298Z,94092.13
2018-12-22T03:17:10.202Z,94080.42
2018-12-22T03:19:38.148Z,94080.60
2018-12-22T03:22:06.287Z,94082.23
2018-12-22T03:24:34.434Z,94083.02
2018-12-22T03:27:02.904Z,94079.20
2018-12-22T03:29:30.843Z,94059.50
2018-12-22T03:31:58.869Z,94063.02
2018-12-22T03:34:26.858Z,94049.88
2018-12-22T03:36:54.799Z,94043.17
2018-12-22T03:39:22.789Z,94051.29
2018-12-22T03:41:50.702Z,94058.67
2018-12-22T03:44:18.639Z,94060.73
2018-12-22T03:46:46.638Z,94045.88
2018-12-22T03:49:14.590Z,94040.34
2018-12-22T03:51:42.476Z,94039.13
2018-12-22T03:54:10.396Z,94046.78
2018-12-22T03:56:38.331Z,94053.40
2018-12-22T03:59:06.372Z,94046.14
2018-12-22T04:01:34.330Z,94052.09
2018-12-22T04:04:02.252Z,94048.77
2018-12-22T04:06:30.251Z,94050.09
2018-12-22T04:08:58.168Z,94032.41
2018-12-22T04:11:26.113Z,94039.55
2018-12-22T04:13:54.050Z,94030.33
2018-12-22T04:16:21.957Z,94035.42
2018-12-22T04:18:49.987Z,94027.35
2018-12-22T04:21:17.935Z,94028.20
2018-12-22T04:23:45.889Z,94023.98
2018-12-22T04:26:13.858Z,94028.66
2018-12-22T04:28:41.814Z,94023.56
2018-12-22T04:31:09.794Z,94023.66
2018-12-22T04:33:37.829Z,94027.05
2018-12-22T04:36:05.745Z,94034.23
2018-12-22T04:38:33.704Z,94037.97
2018-12-22T04:41:01.720Z,94033.34
2018-12-22T04:43:29.676Z,94044.50
2018-12-22T04:45:57.700Z,94038.98
2018-12-22T04:48:25.637Z,94037.30
2018-12-22T04:50:53.573Z,94032.39
2018-12-22T04:53:21.465Z,94034.10
2018-12-22T04:55:49.414Z,94039.65
2018-12-22T04:58:17.334Z,94026.88
2018-12-22T05:00:45.290Z,94019.77
2018-12-22T05:03:13.252Z,94032.13
2018-12-22T05:05:41.246Z,94035.49
2018-12-22T05:08:09.208Z,94027.30
2018-12-22T05:10:37.220Z,94029.39
2018-12-22T05:13:05.205Z,94036.01
2018-12-22T05:15:33.212Z,94048.63
2018-12-22T05:18:01.366Z,94054.41
2018-12-22T05:20:29.339Z,94056.52
2018-12-22T05:22:57.321Z,94050.20
2018-12-22T05:25:25.256Z,94039.50
2018-12-22T05:27:53.198Z,94038.56
2018-12-22T05:30:21.229Z,94024.72
2018-12-22T05:32:49.269Z,94028.92
2018-12-22T05:35:17.206Z,94050.76
2018-12-22T05:37:45.267Z,94062.45
2018-12-22T05:40:13.472Z,94088.17
2018-12-22T05:42:41.484Z,94087.68
2018-12-22T05:45:09.535Z,94065.64
2018-12-22T05:47:37.495Z,94073.81
2018-12-22T05:50:05.925Z,94073.53
2018-12-22T05:52:33.829Z,94064.32
2018-12-22T05:55:01.761Z,94064.39
2018-12-22T05:57:29.780Z,94068.38
2018-12-22T06:00:00.807Z,94066.41
2018-12-22T06:02:27.669Z,94060.17
2018-12-22T06:04:55.645Z,94073.55
2018-12-22T06:07:23.637Z,94071.57
2018-12-22T06:09:51.608Z,94052.05
2018-12-22T06:12:19.573Z,94072.83
2018-12-22T06:14:47.641Z,94074.63
2018-12-22T06:17:16.373Z,94075.95
2018-12-22T06:19:44.309Z,94076.00
2018-12-22T06:22:12.596Z,94079.50
2018-12-22T06:24:40.556Z,94085.87
2018-12-22T06:27:08.974Z,94082.48
2018-12-22T06:29:37.054Z,94092.84
2018-12-22T06:32:05.031Z,94100.30
2018-12-22T06:34:33.294Z,94088.58
2018-12-22T06:37:01.311Z,94076.36
2018-12-22T06:39:29.730Z,94062.11
2018-12-22T06:41:58.065Z,94071.53
2018-12-22T06:44:26.569Z,94065.23
2018-12-22T06:46:54.580Z,94079.31
2018-12-22T06:49:22.715Z,94084.45
2018-12-22T06:51:50.702Z,94086.07
2018-12-22T06:54:18.985Z,94073.45
2018-12-22T06:56:47.001Z,94061.20
2018-12-22T06:59:15.360Z,94076.84
2018-12-22T07:01:43.404Z,94091.63
2018-12-22T07:04:11.662Z,94084.90
2018-12-22T07:06:39.772Z,94078.16
2018-12-22T07:09:08.048Z,94080.70
2018-12-22T07:11:36.617Z,94076.05
2018-12-22T07:14:04.659Z,94080.27
2018-12-22T07:16:33.252Z,94078.63
2018-12-22T07:19:01.262Z,94086.21
2018-12-22T07:21:29.659Z,94099.33
2018-12-22T07:23:57.649Z,94087.48
2018-12-22T07:26:25.842Z,94072.20
2018-12-22T07:28:54.069Z,94066.58
2018-12-22T07:31:22.091Z,94086.47
2018-12-22T07:33:50.298Z,94114.12
2018-12-22T07:36:19.166Z,94113.91
2018-12-22T07:38:48.526Z,94109.70
2018-12-22T07:41:16.630Z,94107.92
2018-12-22T07:43:44.648Z,94107.20
2018-12-22T07:46:12.712Z,94111.63
2018-12-22T07:48:40.753Z,94116.84
2018-12-22T07:51:08.839Z,94118.12
2018-12-22T07:53:36.936Z,94107.80
2018-12-22T07:56:05.229Z,94105.05
2018-12-22T07:58:33.301Z,94091.96
2018-12-22T08:01:01.446Z,94079.63
2018-12-22T08:03:29.497Z,94090.17
2018-12-22T08:05:57.658Z,94105.70
2018-12-22T08:08:25.804Z,94096.25
2018-12-22T08:10:54.060Z,94105.39
2018-12-22T08:13:22.176Z,94096.33
2018-12-22T08:15:50.364Z,94096.83
2018-12-22T08:18:18.576Z,94118.23
2018-12-22T08:20:46.763Z,94109.31
2018-12-22T08:23:14.819Z,94110.78
2018-12-22T08:25:42.993Z,94110.30
2018-12-22T08:28:11.088Z,94107.89
2018-12-22T08:30:43.464Z,94099.77
2018-12-22T08:33:09.535Z,94112.83
2018-12-22T08:35:37.561Z,94111.08
2018-12-22T08:38:05.793Z,94117.55
2018-12-22T08:40:34.436Z,94113.59
2018-12-22T08:43:02.571Z,94110.98
2018-12-22T08:45:30.663Z,94110.97
2018-12-22T08:47:59.326Z,94117.11
2018-12-22T08:50:27.372Z,94120.88
2018-12-22T08:52:55.887Z,94116.13
2018-12-22T08:55:24.047Z,94105.09
2018-12-22T08:57:52.048Z,94101.92
2018-12-22T09:00:20.203Z,94094.86
2018-12-22T09:02:48.598Z,94091.96
2018-12-22T09:05:16.745Z,94093.12
2018-12-22T09:07:44.854Z,94099.50
2018-12-22T09:10:12.963Z,94105.58
2018-12-22T09:12:40.972Z,94108.06
2018-12-22T09:15:09.307Z,94104.64
2018-12-22T09:17:37.378Z,94098.16
2018-12-22T09:20:08.066Z,94085.41
2018-12-22T09:22:36.257Z,94092.59
2018-12-22T09:25:04.955Z,94087.50
2018-12-22T09:27:33.229Z,94073.39
2018-12-22T09:30:01.553Z,94076.23
2018-12-22T16:07:44.266Z,93823.70
2018-12-22T16:10:13.569Z,93833.43
2018-12-22T16:15:39.007Z,93825.15
2018-12-22T16:18:06.929Z,93821.72
2018-12-22T16:20:35.007Z,93834.41
2018-12-22T16:23:03.998Z,93833.25
2018-12-22T16:25:32.256Z,93823.60
2018-12-22T16:28:07.299Z,93828.38
2018-12-22T16:30:41.631Z,93828.01
2018-12-22T16:33:09.899Z,93830.09
2018-12-22T16:35:38.361Z,93830.93
2018-12-22T16:38:06.632Z,93826.75
2018-12-22T16:40:34.924Z,93831.89
2018-12-22T16:43:04.821Z,93835.27
2018-12-22T16:45:33.191Z,93835.50
2018-12-22T16:48:01.199Z,93827.84
2018-12-22T16:50:31.520Z,93831.01
2018-12-22T16:52:59.581Z,93836.44
2018-12-22T16:55:28.073Z,93827.09
2018-12-22T16:58:08.751Z,93825.82
2018-12-22T17:00:41.563Z,93822.50
2018-12-22T17:03:11.171Z,93826.72
2018-12-22T17:05:39.659Z,93832.36
2018-12-22T17:08:07.703Z,93833.30
2018-12-22T17:10:41.973Z,93836.30
2018-12-22T17:13:11.069Z,93823.95
2018-12-22T17:15:42.566Z,93821.84
2018-12-22T17:18:10.445Z,93824.55
2018-12-22T17:20:38.487Z,93823.81
2018-12-22T17:23:14.485Z,93821.73
2018-12-22T17:25:52.574Z,93836.14
2018-12-22T17:28:28.021Z,93837.98
2018-12-22T17:30:50.867Z,93832.89
2018-12-22T17:33:19.346Z,93827.34
2018-12-22T17:35:47.461Z,93821.39
2018-12-22T17:38:15.467Z,93824.24
2018-12-22T17:40:43.446Z,93817.69
2018-12-22T17:43:11.620Z,93822.09
2018-12-22T17:45:39.709Z,93836.23
2018-12-22T17:48:07.767Z,93836.39
2018-12-22T17:50:35.821Z,93834.16
2018-12-22T17:53:04.240Z,93835.13
2018-12-22T17:55:32.423Z,93832.86
2018-12-22T17:58:00.493Z,93833.27
2018-12-22T18:00:28.861Z,93833.63
2018-12-22T18:02:57.097Z,93819.18
2018-12-22T18:05:25.391Z,93823.81
2018-12-22T18:07:53.560Z,93827.97
2018-12-22T18:10:21.810Z,93823.08
2018-12-22T18:12:50.306Z,93824.47
2018-12-22T18:15:20.998Z,93819.34
2018-12-22T18:17:49.422Z,93819.84
2018-12-22T18:20:18.066Z,93819.70
2018-12-22T18:22:46.381Z,93823.87
2018-12-22T18:25:16.174Z,93822.88
2018-12-22T18:27:44.145Z,93820.95
2018-12-22T18:30:12.677Z,93824.35
2018-12-22T18:32:40.950Z,93827.19
2018-12-22T18:35:10.165Z,93834.06
2018-12-22T18:37:38.181Z,93840.20
2018-12-22T18:40:12.162Z,93842.02
2018-12-22T18:42:40.446Z,93827.64
2018-12-22T18:45:10.361Z,93824.34
2018-12-22T18:47:38.588Z,93812.13
2018-12-22T18:50:12.982Z,93815.87
2018-12-22T18:52:41.187Z,93816.33
2018-12-22T18:55:09.452Z,93821.97
2018-12-22T18:57:37.637Z,93828.42
2018-12-22T19:00:13.618Z,93838.09
2018-12-22T19:02:41.649Z,93854.95
2018-12-22T19:05:09.773Z,93862.87
2018-12-22T19:07:37.749Z,93869.73
2018-12-22T19:10:12.601Z,93856.14
2018-12-22T19:12:40.610Z,93843.79
2018-12-22T19:15:08.701Z,93835.70
2018-12-22T19:17:36.700Z,93828.32
2018-12-22T19:20:08.295Z,93837.89
2018-12-22T19:22:36.302Z,93836.18
2018-12-22T19:25:04.657Z,93839.92
2018-12-22T19:27:32.706Z,93837.18
2018-12-22T19:30:00.785Z,93824.64
2018-12-22T19:32:28.817Z,93821.70
2018-12-22T19:34:56.805Z,93823.81
2018-12-22T19:37:24.797Z,93834.86
2018-12-22T19:39:52.798Z,93839.25
2018-12-22T19:42:20.809Z,93833.99
2018-12-22T19:44:48.767Z,93844.92
2018-12-22T19:47:16.879Z,93845.53
2018-12-22T19:49:44.848Z,93834.17
2018-12-22T19:52:12.894Z,93834.44
2018-12-22T19:54:40.892Z,93830.82
2018-12-22T19:57:08.984Z,93832.52
2018-12-22T19:59:38.709Z,93836.05
2018-12-22T20:02:07.048Z,93841.28
2018-12-22T20:04:35.210Z,93837.80
2018-12-22T20:07:03.372Z,93836.18
2018-12-22T20:09:31.301Z,93835.00
2018-12-22T20:11:59.409Z,93839.56
2018-12-22T20:14:27.295Z,93838.29
2018-12-22T20:16:55.428Z,93827.25
2018-12-22T20:19:23.398Z,93828.83
2018-12-22T20:21:51.369Z,93834.26
2018-12-22T20:24:19.350Z,93837.64
2018-12-22T20:26:47.361Z,93832.19
2018-12-22T20:29:15.343Z,93834.36
2018-12-22T20:31:43.263Z,93829.19
2018-12-22T20:34:11.490Z,93834.27
2018-12-22T20:36:39.703Z,93844.34
2018-12-22T20:39:07.792Z,93848.88
2018-12-22T20:41:35.714Z,93844.23
2018-12-22T20:44:03.616Z,93846.72
2018-12-22T20:46:31.567Z,93851.59
2018-12-22T20:48:59.445Z,93864.91
2018-12-22T20:51:27.397Z,93867.72
2018-12-22T20:53:55.312Z,93865.34
2018-12-22T20:56:23.226Z,93868.28
2018-12-22T20:58:51.217Z,93867.30
2018-12-22T21:01:19.238Z,93876.02
2018-12-22T21:03:47.608Z,93861.66
2018-12-22T21:06:20.175Z,93849.38
2018-12-22T21:08:48.232Z,93839.99
2018-12-22T21:11:16.295Z,93839.23
2018-12-22T21:13:44.313Z,93837.98
2018-12-22T21:16:12.278Z,93866.59
2018-12-22T21:18:40.273Z,93859.85
2018-12-22T21:21:08.139Z,93852.22
2018-12-22T21:23:36.023Z,93858.59
2018-12-22T21:26:03.956Z,93864.92
2018-12-22T21:28:31.813Z,93859.73
2018-12-22T21:30:59.755Z,93861.27
2018-12-22T21:33:27.755Z,93855.03
2018-12-22T21:35:55.734Z,93857.36
2018-12-22T21:38:23.770Z,93843.98
2018-12-22T21:40:53.075Z,93845.34
2018-12-22T21:43:21.162Z,93838.80
2018-12-22T21:45:49.330Z,93837.96
2018-12-22T21:48:17.306Z,93839.17
2018-12-22T21:50:45.231Z,93842.95
2018-12-22T21:53:13.209Z,93848.44
2018-12-22T21:55:41.262Z,93849.62
2018-12-22T21:58:09.481Z,93850.77
2018-12-22T22:00:37.571Z,93843.03
2018-12-22T22:03:05.542Z,93840.34
2018-12-22T22:05:33.642Z,93835.95
2018-12-22T22:08:01.626Z,93840.06
2018-12-22T22:10:29.600Z,93833.85
2018-12-22T22:12:57.527Z,93832.55
2018-12-22T22:15:25.488Z,93825.38
2018-12-22T22:17:53.516Z,93828.70
2018-12-22T22:20:21.421Z,93820.63
2018-12-22T22:22:49.299Z,93828.82
2018-12-22T22:25:17.207Z,93825.34
2018-12-22T22:27:45.048Z,93811.40
2018-12-22T22:30:13.049Z,93815.37
2018-12-22T22:32:41.018Z,93810.66
2018-12-22T22:35:08.888Z,93806.22
2018-12-22T22:37:36.841Z,93815.49
2018-12-22T22:40:04.846Z,93820.96
2018-12-22T22:42:32.744Z,93814.56
2018-12-22T22:45:00.635Z,93817.02
2018-12-22T22:47:28.531Z,93816.46
2018-12-22T22:49:56.507Z,93812.30
2018-12-22T22:52:24.484Z,93800.53
2018-12-22T22:54:52.416Z,93797.06
2018-12-22T22:57:20.335Z,93816.23
2018-12-22T22:59:48.431Z,93819.82
2018-12-22T23:02:16.394Z,93811.36
2018-12-22T23:04:44.258Z,93821.47
2018-12-22T23:07:12.191Z,93814.56
2018-12-22T23:09:40.160Z,93804.03
2018-12-22T23:12:08.062Z,93800.19
2018-12-22T23:14:35.961Z,93801.37
2018-12-22T23:17:03.903Z,93797.41
2018-12-22T23:19:31.817Z,93800.39
2018-12-22T23:21:59.786Z,93807.00
2018-12-22T23:24:27.661Z,93813.42
2018-12-22T23:26:55.710Z,93826.03
2018-12-22T23:29:23.633Z,93818.05
2018-12-22T23:31:51.488Z,93807.76
2018-12-22T23:34:19.506Z,93811.67
2018-12-22T23:36:47.380Z,93795.91
2018-12-22T23:39:15.258Z,93804.78
2018-12-22T23:41:43.161Z,93813.85
2018-12-22T23:44:11.031Z,93811.02
2018-12-22T23:46:38.978Z,93811.14
2018-12-22T23:49:06.848Z,93808.17
2018-12-22T23:51:34.720Z,93817.86
2018-12-22T23:54:02.611Z,93825.88
2018-12-22T23:56:30.523Z,93818.57
2018-12-22T23:58:58.429Z,93831.23
